Time;durP1;ratioP1;P1;durP2;ratioP2;P2;SDS_P1;SDS_P2;PMS_P1;PMS_P2;Temp;Humidity;BMP_temperature;BMP_pressure;BME280_temperature;BME280_humidity;BME280_pressure;Samples;Min_cycle;Max_cycle;Signal;HPM_P1;HPM_P2
2022/09/20 00:01:32;;;;;;;1.08;1.05;;;;;;;;;;615009;231;26574;-65
2022/09/20 00:04:03;;;;;;;1.00;0.98;;;;;;;;;;616749;229;26601;-65
2022/09/20 00:06:30;;;;;;;0.80;0.80;;;;;;;;;;614802;231;26582;-65
2022/09/20 00:09:00;;;;;;;0.95;0.88;;;;;;;;;;616637;230;26542;-65
2022/09/20 00:11:28;;;;;;;1.23;0.93;;;;;;;;;;614583;231;26556;-65
2022/09/20 00:13:56;;;;;;;1.52;0.90;;;;;;;;;;614819;231;26828;-65
2022/09/20 00:16:25;;;;;;;1.65;1.02;;;;;;;;;;615982;231;26555;-65
2022/09/20 00:18:54;;;;;;;0.90;0.85;;;;;;;;;;614624;231;26802;-64
2022/09/20 00:21:24;;;;;;;1.12;1.02;;;;;;;;;;615658;231;26577;-65
2022/09/20 00:23:53;;;;;;;2.35;1.17;;;;;;;;;;615702;231;26825;-65
2022/09/20 00:26:21;;;;;;;1.00;0.90;;;;;;;;;;616179;231;26557;-65
2022/09/20 00:28:51;;;;;;;1.08;0.90;;;;;;;;;;613978;234;26597;-65
2022/09/20 00:31:20;;;;;;;1.15;0.90;;;;;;;;;;616842;228;26544;-65
2022/09/20 00:36:23;;;;;;;1.08;1.00;;;;;;;;;;615585;231;26572;-64
2022/09/20 00:38:54;;;;;;;2.08;1.00;;;;;;;;;;614732;231;26611;-64
2022/09/20 00:41:22;;;;;;;0.95;0.95;;;;;;;;;;615777;231;27096;-64
2022/09/20 00:43:51;;;;;;;0.98;0.85;;;;;;;;;;615526;231;26589;-64
2022/09/20 00:46:22;;;;;;;1.00;0.90;;;;;;;;;;618109;228;26970;-64
2022/09/20 00:48:51;;;;;;;0.80;0.80;;;;;;;;;;617083;230;26844;-64
2022/09/20 00:51:21;;;;;;;3.47;0.98;;;;;;;;;;618162;230;26583;-64
2022/09/20 00:53:50;;;;;;;0.90;0.90;;;;;;;;;;618300;230;26558;-64
2022/09/20 00:56:18;;;;;;;0.90;0.90;;;;;;;;;;615729;231;26812;-64
2022/09/20 00:58:52;;;;;;;0.90;0.90;;;;;;;;;;616495;230;26581;-64
2022/09/20 01:01:21;;;;;;;1.02;1.00;;;;;;;;;;616375;230;26580;-64
2022/09/20 01:03:50;;;;;;;0.80;0.80;;;;;;;;;;616794;230;26803;-64
2022/09/20 01:06:19;;;;;;;2.03;1.00;;;;;;;;;;616642;230;26558;-64
2022/09/20 01:08:48;;;;;;;1.15;1.00;;;;;;;;;;615469;231;26830;-64
2022/09/20 01:11:17;;;;;;;1.15;1.05;;;;;;;;;;616981;228;26544;-65
2022/09/20 01:13:46;;;;;;;1.10;1.00;;;;;;;;;;617402;230;26598;-64
2022/09/20 01:16:16;;;;;;;0.90;0.90;;;;;;;;;;615795;230;26563;-64
2022/09/20 01:18:43;;;;;;;1.17;0.80;;;;;;;;;;615998;230;26583;-64
2022/09/20 01:21:14;;;;;;;1.37;1.10;;;;;;;;;;614840;231;26576;-65
2022/09/20 01:23:43;;;;;;;0.85;0.85;;;;;;;;;;615644;231;26587;-65
2022/09/20 01:26:15;;;;;;;1.02;0.80;;;;;;;;;;616106;231;27058;-65
2022/09/20 01:28:46;;;;;;;3.80;1.00;;;;;;;;;;617099;231;26635;-63
2022/09/20 01:31:14;;;;;;;2.95;1.05;;;;;;;;;;617618;231;26814;-63
2022/09/20 01:33:43;;;;;;;0.98;0.90;;;;;;;;;;615056;231;26665;-63
2022/09/20 01:36:12;;;;;;;2.05;0.80;;;;;;;;;;615532;231;26805;-63
2022/09/20 01:38:58;;;;;;;1.10;0.98;;;;;;;;;;614720;231;26581;-63
2022/09/20 01:41:27;;;;;;;2.22;1.00;;;;;;;;;;613972;231;26639;-63
2022/09/20 01:44:00;;;;;;;0.82;0.80;;;;;;;;;;615967;231;26783;-63
2022/09/20 01:46:30;;;;;;;1.00;1.00;;;;;;;;;;616018;231;26586;-64
2022/09/20 01:48:59;;;;;;;0.80;0.80;;;;;;;;;;615730;230;26820;-63
2022/09/20 01:51:31;;;;;;;0.90;0.90;;;;;;;;;;615256;231;26626;-63
2022/09/20 01:54:01;;;;;;;1.05;0.90;;;;;;;;;;616584;231;26875;-63
2022/09/20 01:56:35;;;;;;;1.65;1.10;;;;;;;;;;615200;231;26558;-63
2022/09/20 01:59:11;;;;;;;0.95;0.95;;;;;;;;;;617013;229;26847;-63
2022/09/20 02:01:44;;;;;;;0.85;0.85;;;;;;;;;;619999;230;26602;-63
2022/09/20 02:04:34;;;;;;;2.15;0.95;;;;;;;;;;617421;230;26961;-63
2022/09/20 02:07:13;;;;;;;0.80;0.80;;;;;;;;;;615010;230;26815;-63
2022/09/20 02:09:44;;;;;;;1.08;1.02;;;;;;;;;;616533;230;26584;-64
2022/09/20 02:12:32;;;;;;;1.08;1.08;;;;;;;;;;618006;230;26629;-63
2022/09/20 02:15:18;;;;;;;2.37;1.00;;;;;;;;;;605272;231;26587;-63
2022/09/20 02:17:58;;;;;;;2.47;1.25;;;;;;;;;;610104;233;26559;-63
2022/09/20 02:20:30;;;;;;;0.80;0.80;;;;;;;;;;616848;230;26533;-63
2022/09/20 02:23:07;;;;;;;0.80;0.80;;;;;;;;;;616898;230;26816;-63
2022/09/20 02:25:42;;;;;;;0.70;0.70;;;;;;;;;;616268;230;26537;-63
2022/09/20 02:28:11;;;;;;;1.05;0.90;;;;;;;;;;615948;230;26551;-63
2022/09/20 02:30:43;;;;;;;0.80;0.80;;;;;;;;;;613614;233;26582;-64
2022/09/20 02:33:17;;;;;;;0.70;0.70;;;;;;;;;;615672;231;26596;-63
2022/09/20 02:35:52;;;;;;;1.17;1.08;;;;;;;;;;616063;231;26605;-63
2022/09/20 02:38:31;;;;;;;1.17;1.02;;;;;;;;;;614944;231;26619;-63
2022/09/20 02:41:19;;;;;;;0.80;0.80;;;;;;;;;;616315;230;26612;-63
2022/09/20 02:43:49;;;;;;;1.30;0.98;;;;;;;;;;614828;231;26823;-63
2022/09/20 02:46:20;;;;;;;0.80;0.80;;;;;;;;;;617537;231;26626;-63
2022/09/20 02:48:51;;;;;;;0.80;0.80;;;;;;;;;;616682;231;26601;-63
2022/09/20 02:51:19;;;;;;;1.12;1.02;;;;;;;;;;614331;231;26567;-63
2022/09/20 02:53:51;;;;;;;1.25;0.88;;;;;;;;;;615460;231;26853;-63
2022/09/20 02:56:36;;;;;;;0.90;0.88;;;;;;;;;;615269;231;26564;-63
2022/09/20 02:59:22;;;;;;;0.90;0.88;;;;;;;;;;615586;231;26639;-64
2022/09/20 03:01:53;;;;;;;1.30;1.00;;;;;;;;;;615893;231;26641;-63
2022/09/20 03:04:22;;;;;;;1.12;0.90;;;;;;;;;;616876;231;26577;-63
2022/09/20 03:06:54;;;;;;;1.70;0.85;;;;;;;;;;615607;231;26533;-63
2022/09/20 03:09:29;;;;;;;0.70;0.70;;;;;;;;;;618016;230;26845;-63
2022/09/20 03:12:01;;;;;;;0.82;0.82;;;;;;;;;;616400;230;26621;-63
2022/09/20 03:14:31;;;;;;;0.93;0.90;;;;;;;;;;618783;230;26619;-64
2022/09/20 03:17:01;;;;;;;0.77;0.77;;;;;;;;;;615922;230;26557;-63
2022/09/20 03:19:43;;;;;;;0.80;0.80;;;;;;;;;;615836;231;26609;-64
2022/09/20 03:22:14;;;;;;;0.85;0.85;;;;;;;;;;614604;231;26621;-63
2022/09/20 03:25:03;;;;;;;1.00;0.90;;;;;;;;;;614228;233;26562;-63
2022/09/20 03:27:38;;;;;;;0.82;0.82;;;;;;;;;;604212;231;26663;-63
2022/09/20 03:30:16;;;;;;;1.25;0.90;;;;;;;;;;614824;231;26817;-65
2022/09/20 03:33:01;;;;;;;0.80;0.80;;;;;;;;;;616657;230;26661;-63
2022/09/20 03:35:30;;;;;;;0.88;0.80;;;;;;;;;;612023;231;26940;-61
2022/09/20 03:38:03;;;;;;;0.90;0.90;;;;;;;;;;615134;231;26576;-64
2022/09/20 03:40:36;;;;;;;0.98;0.98;;;;;;;;;;615333;231;26596;-64
2022/09/20 03:43:08;;;;;;;0.80;0.80;;;;;;;;;;618356;230;26597;-64
2022/09/20 03:45:40;;;;;;;1.02;0.93;;;;;;;;;;617605;231;26617;-64
2022/09/20 03:48:16;;;;;;;0.90;0.90;;;;;;;;;;616203;231;26620;-64
2022/09/20 03:50:51;;;;;;;0.95;0.80;;;;;;;;;;615359;231;27095;-64
2022/09/20 03:53:26;;;;;;;0.90;0.90;;;;;;;;;;614622;231;26602;-64
2022/09/20 03:56:03;;;;;;;1.20;1.10;;;;;;;;;;616044;231;26559;-64
2022/09/20 03:58:52;;;;;;;1.20;0.75;;;;;;;;;;615594;231;26779;-63
2022/09/20 04:01:41;;;;;;;1.42;0.98;;;;;;;;;;605919;230;26807;-63
2022/09/20 04:04:11;;;;;;;1.62;0.80;;;;;;;;;;613667;231;26600;-71
2022/09/20 04:06:42;;;;;;;1.77;0.90;;;;;;;;;;618017;231;26601;-71
2022/09/20 04:09:30;;;;;;;0.73;0.70;;;;;;;;;;617724;231;26827;-71
2022/09/20 04:12:05;;;;;;;0.80;0.80;;;;;;;;;;611486;231;26660;-70
2022/09/20 04:14:34;;;;;;;0.70;0.70;;;;;;;;;;616523;231;26568;-71
2022/09/20 04:17:03;;;;;;;0.77;0.77;;;;;;;;;;614389;231;26549;-71
2022/09/20 04:19:32;;;;;;;1.05;0.70;;;;;;;;;;615979;231;26841;-71
2022/09/20 04:22:02;;;;;;;0.70;0.70;;;;;;;;;;616554;230;27189;-71
2022/09/20 04:24:46;;;;;;;0.80;0.80;;;;;;;;;;616766;231;26617;-71
2022/09/20 04:27:14;;;;;;;0.85;0.80;;;;;;;;;;610627;231;26842;-66
2022/09/20 04:29:47;;;;;;;1.17;0.98;;;;;;;;;;615941;229;26617;-66
2022/09/20 04:32:32;;;;;;;1.10;1.00;;;;;;;;;;616655;230;26681;-67
2022/09/20 04:37:39;;;;;;;2.72;1.00;;;;;;;;;;617896;230;26647;-68
2022/09/20 04:40:11;;;;;;;1.42;0.80;;;;;;;;;;616822;229;26787;-69
2022/09/20 04:42:41;;;;;;;0.80;0.80;;;;;;;;;;616184;230;26867;-69
2022/09/20 04:45:16;;;;;;;0.70;0.70;;;;;;;;;;613999;231;26837;-69
2022/09/20 04:47:51;;;;;;;0.82;0.82;;;;;;;;;;616395;230;26595;-70
2022/09/20 04:50:28;;;;;;;0.80;0.80;;;;;;;;;;617302;230;26855;-69
2022/09/20 04:53:02;;;;;;;0.75;0.75;;;;;;;;;;614560;231;26813;-69
2022/09/20 04:55:51;;;;;;;0.80;0.80;;;;;;;;;;615740;230;26842;-69
2022/09/20 04:58:23;;;;;;;1.70;0.82;;;;;;;;;;614988;231;26805;-69
2022/09/20 05:00:58;;;;;;;1.40;0.90;;;;;;;;;;616900;231;26572;-69
2022/09/20 05:03:33;;;;;;;0.85;0.85;;;;;;;;;;615995;231;26839;-69
2022/09/20 05:06:03;;;;;;;0.85;0.85;;;;;;;;;;617125;231;26862;-69
2022/09/20 05:08:46;;;;;;;1.40;1.05;;;;;;;;;;616323;231;26612;-69
2022/09/20 05:11:22;;;;;;;0.80;0.80;;;;;;;;;;605704;234;26627;-67
2022/09/20 05:14:03;;;;;;;0.77;0.77;;;;;;;;;;615485;231;26565;-68
2022/09/20 05:16:47;;;;;;;0.73;0.73;;;;;;;;;;616029;231;26568;-69
2022/09/20 05:19:19;;;;;;;1.17;0.75;;;;;;;;;;609747;231;26588;-69
2022/09/20 05:21:49;;;;;;;2.15;1.00;;;;;;;;;;616364;231;26575;-68
2022/09/20 05:24:19;;;;;;;1.52;1.12;;;;;;;;;;616214;231;26559;-67
2022/09/20 05:26:54;;;;;;;0.77;0.77;;;;;;;;;;617300;231;26804;-69
2022/09/20 05:29:24;;;;;;;0.90;0.90;;;;;;;;;;616381;231;26542;-70
2022/09/20 05:31:53;;;;;;;0.85;0.80;;;;;;;;;;620920;228;26582;-69
2022/09/20 05:34:24;;;;;;;1.12;0.80;;;;;;;;;;618391;230;26601;-68
2022/09/20 05:36:54;;;;;;;2.72;1.20;;;;;;;;;;616442;231;26534;-68
2022/09/20 05:39:28;;;;;;;1.45;0.98;;;;;;;;;;617476;230;26549;-68
2022/09/20 05:41:57;;;;;;;0.70;0.70;;;;;;;;;;615406;231;26581;-69
2022/09/20 05:44:29;;;;;;;0.73;0.73;;;;;;;;;;616250;231;26811;-70
2022/09/20 05:47:04;;;;;;;1.27;1.00;;;;;;;;;;616741;230;26606;-69
2022/09/20 05:49:48;;;;;;;0.75;0.75;;;;;;;;;;616597;230;26637;-69
2022/09/20 05:52:24;;;;;;;0.80;0.80;;;;;;;;;;611471;231;26599;-69
2022/09/20 05:54:58;;;;;;;0.80;0.80;;;;;;;;;;617197;230;26559;-69
2022/09/20 05:57:27;;;;;;;0.90;0.90;;;;;;;;;;615537;231;26540;-69
2022/09/20 05:59:56;;;;;;;2.25;0.90;;;;;;;;;;616799;230;26582;-69
2022/09/20 06:02:43;;;;;;;0.80;0.80;;;;;;;;;;616579;230;26597;-68
2022/09/20 06:05:15;;;;;;;0.80;0.80;;;;;;;;;;607745;233;26903;-69
2022/09/20 06:07:47;;;;;;;1.23;0.70;;;;;;;;;;616715;229;26606;-68
2022/09/20 06:10:29;;;;;;;0.80;0.80;;;;;;;;;;614830;231;26580;-69
2022/09/20 06:12:57;;;;;;;2.22;1.10;;;;;;;;;;616048;231;26824;-68
2022/09/20 06:15:32;;;;;;;0.80;0.80;;;;;;;;;;616577;231;26559;-68
2022/09/20 06:18:07;;;;;;;0.90;0.90;;;;;;;;;;619498;230;26813;-68
2022/09/20 06:20:41;;;;;;;1.27;1.08;;;;;;;;;;617852;230;26592;-69
2022/09/20 06:23:10;;;;;;;1.70;0.90;;;;;;;;;;617394;231;26658;-69
2022/09/20 06:25:41;;;;;;;0.85;0.85;;;;;;;;;;616824;231;26580;-69
2022/09/20 06:28:15;;;;;;;0.85;0.70;;;;;;;;;;615705;231;26672;-69
2022/09/20 06:30:45;;;;;;;0.80;0.80;;;;;;;;;;614816;231;26564;-68
2022/09/20 06:33:15;;;;;;;1.83;0.93;;;;;;;;;;614786;230;26592;-68
2022/09/20 06:35:43;;;;;;;0.82;0.82;;;;;;;;;;615488;231;26556;-68
2022/09/20 06:43:39;;;;;;;1.00;0.80;;;;;;;;;;618743;229;27385;-69
2022/09/20 06:46:06;;;;;;;1.10;1.10;;;;;;;;;;619347;230;26607;-69
2022/09/20 06:48:38;;;;;;;1.35;1.00;;;;;;;;;;616417;230;26801;-69
2022/09/20 06:51:03;;;;;;;0.70;0.70;;;;;;;;;;618177;230;26559;-70
2022/09/20 06:53:32;;;;;;;0.75;0.75;;;;;;;;;;615143;231;26620;-70
2022/09/20 06:56:01;;;;;;;1.25;1.00;;;;;;;;;;617269;230;26836;-69
2022/09/20 06:58:31;;;;;;;0.90;0.90;;;;;;;;;;617044;230;26623;-69
2022/09/20 07:00:59;;;;;;;1.02;0.80;;;;;;;;;;617814;230;27157;-69
2022/09/20 07:03:28;;;;;;;0.90;0.80;;;;;;;;;;614278;233;26612;-69
2022/09/20 07:05:59;;;;;;;0.88;0.85;;;;;;;;;;616608;230;26778;-67
2022/09/20 07:08:26;;;;;;;80.80;15.10;;;;;;;;;;615359;228;26580;-67
2022/09/20 07:10:55;;;;;;;1013.58;104.28;;;;;;;;;;614317;233;26551;-69
2022/09/20 07:13:24;;;;;;;1999.90;545.75;;;;;;;;;;615521;231;26594;-68
2022/09/20 07:15:52;;;;;;;1999.90;542.45;;;;;;;;;;615584;231;26578;-68
2022/09/20 07:18:21;;;;;;;95.53;27.10;;;;;;;;;;615524;231;27021;-66
2022/09/20 07:20:50;;;;;;;80.65;24.17;;;;;;;;;;616728;231;26537;-70
2022/09/20 07:23:19;;;;;;;82.68;21.77;;;;;;;;;;615974;231;26821;-70
2022/09/20 07:25:48;;;;;;;67.32;17.77;;;;;;;;;;615265;234;26577;-69
2022/09/20 07:28:19;;;;;;;56.97;14.48;;;;;;;;;;614196;233;26528;-69
2022/09/20 07:30:46;;;;;;;35.63;12.05;;;;;;;;;;620819;231;26973;-69
2022/09/20 07:33:20;;;;;;;35.80;12.23;;;;;;;;;;620220;231;26592;-69
2022/09/20 07:35:43;;;;;;;34.13;11.43;;;;;;;;;;613571;234;26541;-69
2022/09/20 07:38:12;;;;;;;27.27;9.73;;;;;;;;;;613369;234;26564;-69
2022/09/20 07:40:41;;;;;;;35.05;10.25;;;;;;;;;;617185;231;26626;-69
2022/09/20 07:43:10;;;;;;;28.80;10.23;;;;;;;;;;614690;233;26901;-69
2022/09/20 07:45:39;;;;;;;32.88;11.30;;;;;;;;;;613909;234;26582;-70
2022/09/20 07:48:08;;;;;;;27.17;9.25;;;;;;;;;;613476;234;26565;-69
2022/09/20 07:50:36;;;;;;;27.25;9.75;;;;;;;;;;614984;234;26811;-68
2022/09/20 07:53:05;;;;;;;20.83;8.25;;;;;;;;;;614628;231;26574;-70
2022/09/20 07:55:35;;;;;;;25.52;8.25;;;;;;;;;;618584;229;26601;-68
2022/09/20 07:58:03;;;;;;;24.48;8.23;;;;;;;;;;615838;233;26816;-68
2022/09/20 08:00:32;;;;;;;16.65;6.97;;;;;;;;;;621054;231;26565;-68
2022/09/20 08:03:02;;;;;;;19.60;7.82;;;;;;;;;;615224;231;26590;-68
2022/09/20 08:05:30;;;;;;;17.02;6.40;;;;;;;;;;618006;231;26583;-68
2022/09/20 08:07:59;;;;;;;12.57;5.60;;;;;;;;;;614993;233;26560;-68
2022/09/20 08:10:28;;;;;;;13.52;5.05;;;;;;;;;;620619;231;26828;-68
2022/09/20 08:12:56;;;;;;;12.02;3.70;;;;;;;;;;613445;233;26622;-68
2022/09/20 08:15:25;;;;;;;9.93;2.95;;;;;;;;;;614602;233;26627;-69
2022/09/20 08:17:54;;;;;;;9.15;2.75;;;;;;;;;;613041;233;26567;-69
2022/09/20 08:20:23;;;;;;;5.15;2.30;;;;;;;;;;615167;233;26609;-70
2022/09/20 08:22:54;;;;;;;3.20;1.80;;;;;;;;;;613272;231;26576;-66
2022/09/20 08:25:21;;;;;;;4.53;1.85;;;;;;;;;;615601;231;26568;-68
2022/09/20 08:27:52;;;;;;;4.40;1.90;;;;;;;;;;616452;230;26829;-68
2022/09/20 08:30:22;;;;;;;5.43;2.10;;;;;;;;;;618566;230;26826;-67
2022/09/20 08:32:49;;;;;;;5.95;1.95;;;;;;;;;;613431;231;26636;-68
2022/09/20 08:35:18;;;;;;;3.90;1.90;;;;;;;;;;617644;231;27679;-68
2022/09/20 08:37:47;;;;;;;6.12;2.15;;;;;;;;;;613890;234;26767;-68
2022/09/20 08:40:16;;;;;;;4.18;1.77;;;;;;;;;;614748;234;26567;-68
2022/09/20 08:42:45;;;;;;;4.87;1.75;;;;;;;;;;612813;234;27066;-68
2022/09/20 08:45:16;;;;;;;6.85;2.50;;;;;;;;;;613459;234;26572;-68
2022/09/20 08:47:47;;;;;;;4.28;1.42;;;;;;;;;;618380;231;26826;-68
2022/09/20 08:50:15;;;;;;;3.85;1.65;;;;;;;;;;614666;231;26640;-68
2022/09/20 08:52:43;;;;;;;3.40;1.67;;;;;;;;;;615079;234;26797;-68
2022/09/20 08:55:15;;;;;;;4.03;1.90;;;;;;;;;;613268;234;26560;-68
2022/09/20 08:57:42;;;;;;;4.10;1.75;;;;;;;;;;613805;234;26556;-65
2022/09/20 09:00:11;;;;;;;3.50;1.50;;;;;;;;;;616583;231;26621;-68
2022/09/20 09:02:40;;;;;;;2.37;1.40;;;;;;;;;;614734;234;26596;-69
2022/09/20 09:05:12;;;;;;;3.35;1.60;;;;;;;;;;613305;234;26557;-68
2022/09/20 09:07:41;;;;;;;2.42;1.45;;;;;;;;;;619265;231;26660;-68
2022/09/20 09:10:10;;;;;;;1.58;1.27;;;;;;;;;;622254;230;26793;-67
2022/09/20 09:12:39;;;;;;;5.05;1.50;;;;;;;;;;614798;231;26582;-67
2022/09/20 09:15:25;;;;;;;1.65;1.40;;;;;;;;;;619493;231;26611;-67
2022/09/20 09:17:53;;;;;;;2.17;1.37;;;;;;;;;;612142;233;26603;-68
2022/09/20 09:20:22;;;;;;;4.55;1.40;;;;;;;;;;619694;231;27241;-67
2022/09/20 09:22:57;;;;;;;1.40;1.25;;;;;;;;;;615273;231;26641;-68
2022/09/20 09:25:36;;;;;;;4.60;1.30;;;;;;;;;;616349;231;26573;-68
2022/09/20 09:28:14;;;;;;;2.60;1.20;;;;;;;;;;619809;230;26580;-68
2022/09/20 09:30:43;;;;;;;2.00;1.40;;;;;;;;;;613790;230;26576;-68
2022/09/20 09:33:15;;;;;;;2.08;1.15;;;;;;;;;;614939;232;26859;-68
2022/09/20 09:35:44;;;;;;;1.70;1.10;;;;;;;;;;618667;230;26571;-68
2022/09/20 09:38:17;;;;;;;2.37;1.48;;;;;;;;;;615724;230;26581;-68
2022/09/20 09:40:49;;;;;;;2.00;1.30;;;;;;;;;;613102;233;26580;-68
2022/09/20 09:43:19;;;;;;;1.92;1.50;;;;;;;;;;614218;231;26646;-68
2022/09/20 09:45:48;;;;;;;1.30;1.17;;;;;;;;;;615600;234;26533;-68
2022/09/20 09:48:20;;;;;;;1.60;1.27;;;;;;;;;;613674;234;26524;-68
2022/09/20 09:50:49;;;;;;;1.73;1.10;;;;;;;;;;614414;231;26993;-68
2022/09/20 09:53:19;;;;;;;2.92;1.23;;;;;;;;;;620741;231;26609;-68
2022/09/20 09:55:52;;;;;;;4.37;1.25;;;;;;;;;;618391;231;26811;-68
2022/09/20 09:58:26;;;;;;;2.80;1.33;;;;;;;;;;613209;234;26564;-68
2022/09/20 10:00:55;;;;;;;4.50;1.35;;;;;;;;;;620061;231;26586;-65
2022/09/20 10:03:28;;;;;;;7.65;1.50;;;;;;;;;;613987;234;26580;-71
2022/09/20 10:05:57;;;;;;;1.98;1.10;;;;;;;;;;618515;231;26591;-62
2022/09/20 10:08:30;;;;;;;4.53;1.30;;;;;;;;;;614881;231;26586;-61
2022/09/20 10:11:05;;;;;;;4.93;1.37;;;;;;;;;;612328;234;26576;-62
2022/09/20 10:13:51;;;;;;;14.57;2.05;;;;;;;;;;613632;234;26600;-62
2022/09/20 10:16:20;;;;;;;6.85;1.33;;;;;;;;;;609954;235;26647;-62
2022/09/20 10:18:55;;;;;;;5.18;1.27;;;;;;;;;;617081;231;26845;-62
2022/09/20 10:21:40;;;;;;;3.28;1.62;;;;;;;;;;619777;231;26850;-62
2022/09/20 10:24:09;;;;;;;3.17;1.33;;;;;;;;;;615067;233;26587;-62
2022/09/20 10:26:44;;;;;;;3.60;1.25;;;;;;;;;;613482;231;26579;-62
2022/09/20 10:29:15;;;;;;;4.70;1.23;;;;;;;;;;618443;231;26601;-62
2022/09/20 10:31:59;;;;;;;5.05;1.30;;;;;;;;;;614278;233;26592;-62
2022/09/20 10:34:34;;;;;;;4.55;1.37;;;;;;;;;;608667;235;26880;-62
2022/09/20 10:37:03;;;;;;;2.87;1.30;;;;;;;;;;621406;230;26773;-61
2022/09/20 10:39:33;;;;;;;3.22;1.20;;;;;;;;;;613893;233;26575;-62
2022/09/20 10:44:40;;;;;;;3.55;1.30;;;;;;;;;;615188;231;26615;-61
2022/09/20 10:47:09;;;;;;;2.85;1.27;;;;;;;;;;621406;230;26848;-62
2022/09/20 10:49:41;;;;;;;4.45;1.23;;;;;;;;;;621293;230;26589;-62
2022/09/20 10:52:19;;;;;;;1.55;1.20;;;;;;;;;;614810;233;26866;-62
2022/09/20 10:54:54;;;;;;;2.58;1.05;;;;;;;;;;613214;231;26530;-61
2022/09/20 10:57:24;;;;;;;1.55;1.10;;;;;;;;;;622113;231;26650;-62
2022/09/20 10:59:52;;;;;;;1.90;1.30;;;;;;;;;;616650;229;26609;-62
2022/09/20 11:02:22;;;;;;;1.30;1.12;;;;;;;;;;614474;234;26598;-62
2022/09/20 11:04:54;;;;;;;2.00;1.20;;;;;;;;;;612263;231;26763;-62
2022/09/20 11:07:35;;;;;;;3.10;1.42;;;;;;;;;;620054;231;26829;-63
2022/09/20 11:10:04;;;;;;;1.55;1.10;;;;;;;;;;615111;231;26796;-63
2022/09/20 11:12:33;;;;;;;2.35;1.10;;;;;;;;;;612554;231;26636;-63
2022/09/20 11:15:03;;;;;;;2.03;1.10;;;;;;;;;;616988;228;26552;-63
2022/09/20 11:17:32;;;;;;;2.58;1.45;;;;;;;;;;622513;231;26799;-63
2022/09/20 11:20:01;;;;;;;1.33;1.23;;;;;;;;;;616853;229;26583;-63
2022/09/20 11:22:39;;;;;;;5.90;1.20;;;;;;;;;;615337;231;26576;-63
2022/09/20 11:25:13;;;;;;;4.20;1.50;;;;;;;;;;614454;231;26628;-63
2022/09/20 11:27:42;;;;;;;8.05;1.90;;;;;;;;;;616336;231;26620;-63
2022/09/20 11:30:14;;;;;;;4.43;1.48;;;;;;;;;;619032;229;26609;-63
2022/09/20 11:32:43;;;;;;;4.03;1.00;;;;;;;;;;621655;230;26665;-63
2022/09/20 11:35:13;;;;;;;2.67;1.50;;;;;;;;;;623245;230;26857;-63
2022/09/20 11:37:42;;;;;;;1.20;1.10;;;;;;;;;;617527;231;26583;-63
2022/09/20 11:40:25;;;;;;;1.95;1.17;;;;;;;;;;614855;230;26842;-64
2022/09/20 11:42:54;;;;;;;1.77;1.25;;;;;;;;;;619177;230;26884;-63
2022/09/20 11:45:23;;;;;;;3.97;1.48;;;;;;;;;;615712;230;26587;-63
2022/09/20 11:47:53;;;;;;;1.20;1.10;;;;;;;;;;615007;231;26955;-63
2022/09/20 11:50:24;;;;;;;3.20;1.30;;;;;;;;;;615083;231;26560;-63
2022/09/20 11:52:53;;;;;;;4.78;1.10;;;;;;;;;;612354;231;26847;-63
2022/09/20 11:55:24;;;;;;;3.28;1.23;;;;;;;;;;615422;233;26927;-63
2022/09/20 11:57:57;;;;;;;1.83;1.25;;;;;;;;;;618809;231;26588;-62
2022/09/20 12:00:29;;;;;;;68.35;12.70;;;;;;;;;;614704;231;26567;-64
2022/09/20 12:02:57;;;;;;;128.73;23.38;;;;;;;;;;617825;231;26824;-62
2022/09/20 12:05:26;;;;;;;77.25;15.85;;;;;;;;;;612481;233;26567;-62
2022/09/20 12:07:55;;;;;;;59.75;11.98;;;;;;;;;;613654;231;26594;-64
2022/09/20 12:10:24;;;;;;;60.08;11.50;;;;;;;;;;613902;234;27000;-63
2022/09/20 12:12:56;;;;;;;41.22;8.82;;;;;;;;;;613958;233;26573;-63
2022/09/20 12:15:40;;;;;;;53.42;9.98;;;;;;;;;;614535;234;26547;-64
2022/09/20 12:18:26;;;;;;;27.65;6.43;;;;;;;;;;615782;227;26533;-64
2022/09/20 12:20:55;;;;;;;28.23;6.35;;;;;;;;;;620372;231;26881;-64
2022/09/20 12:23:30;;;;;;;25.50;6.55;;;;;;;;;;621308;231;26861;-64
2022/09/20 12:26:00;;;;;;;12.90;3.83;;;;;;;;;;615409;231;26843;-63
2022/09/20 12:28:34;;;;;;;4.43;2.58;;;;;;;;;;614726;231;26620;-63
2022/09/20 12:31:09;;;;;;;6.47;2.40;;;;;;;;;;617953;231;26609;-62
2022/09/20 12:33:44;;;;;;;7.37;2.58;;;;;;;;;;615039;228;26569;-62
2022/09/20 12:36:13;;;;;;;4.47;2.20;;;;;;;;;;623346;230;26615;-62
2022/09/20 12:38:42;;;;;;;6.93;2.20;;;;;;;;;;614012;231;26541;-62
2022/09/20 12:41:11;;;;;;;5.35;2.00;;;;;;;;;;616159;231;26639;-62
2022/09/20 12:43:45;;;;;;;4.05;1.90;;;;;;;;;;617589;231;26639;-63
2022/09/20 12:46:17;;;;;;;4.32;1.98;;;;;;;;;;621543;230;26615;-63
2022/09/20 12:48:46;;;;;;;2.85;1.95;;;;;;;;;;622710;230;26770;-62
2022/09/20 12:53:57;;;;;;;3.08;1.60;;;;;;;;;;614794;231;26608;-62
2022/09/20 12:56:26;;;;;;;2.25;1.70;;;;;;;;;;614685;231;26624;-62
2022/09/20 12:58:54;;;;;;;3.42;1.70;;;;;;;;;;622551;230;26574;-62
2022/09/20 13:01:26;;;;;;;5.12;1.90;;;;;;;;;;619329;230;26532;-63
2022/09/20 13:03:56;;;;;;;2.65;1.75;;;;;;;;;;613644;233;26570;-63
2022/09/20 13:06:24;;;;;;;4.97;1.70;;;;;;;;;;620842;230;26585;-63
2022/09/20 13:08:54;;;;;;;5.43;1.75;;;;;;;;;;615088;231;26539;-62
2022/09/20 13:11:27;;;;;;;2.10;1.40;;;;;;;;;;621116;230;26769;-62
2022/09/20 13:14:12;;;;;;;2.28;1.35;;;;;;;;;;616469;230;26595;-62
2022/09/20 13:16:46;;;;;;;3.30;1.20;;;;;;;;;;612244;231;26575;-62
2022/09/20 13:19:16;;;;;;;2.28;1.10;;;;;;;;;;616519;231;26943;-62
2022/09/20 13:21:47;;;;;;;1.00;0.95;;;;;;;;;;615611;231;27044;-62
2022/09/20 13:24:16;;;;;;;2.47;1.33;;;;;;;;;;612177;234;26653;-62
2022/09/20 13:26:44;;;;;;;2.95;1.20;;;;;;;;;;614347;231;26813;-61
2022/09/20 13:29:30;;;;;;;8.73;1.42;;;;;;;;;;613641;234;26582;-61
2022/09/20 13:32:05;;;;;;;3.87;1.30;;;;;;;;;;618994;231;26633;-62
2022/09/20 13:34:34;;;;;;;1.40;1.25;;;;;;;;;;613315;231;27372;-62
2022/09/20 13:37:03;;;;;;;1.90;1.30;;;;;;;;;;614587;234;26556;-62
2022/09/20 13:39:34;;;;;;;2.53;1.27;;;;;;;;;;614177;231;26574;-62
2022/09/20 13:42:01;;;;;;;3.58;1.45;;;;;;;;;;613866;234;26811;-62
2022/09/20 13:44:32;;;;;;;4.07;1.05;;;;;;;;;;615742;231;26612;-63
2022/09/20 13:46:59;;;;;;;0.90;0.90;;;;;;;;;;614544;231;26627;-62
2022/09/20 13:49:28;;;;;;;1.40;1.10;;;;;;;;;;614683;231;26567;-62
2022/09/20 13:51:57;;;;;;;2.40;1.02;;;;;;;;;;613676;227;26585;-62
2022/09/20 13:54:28;;;;;;;2.25;1.20;;;;;;;;;;621696;230;26523;-62
2022/09/20 13:56:58;;;;;;;5.50;1.30;;;;;;;;;;621848;230;26598;-62
2022/09/20 13:59:27;;;;;;;5.18;1.50;;;;;;;;;;614764;233;26567;-62
2022/09/20 14:01:56;;;;;;;1.75;1.10;;;;;;;;;;614313;233;26577;-62
2022/09/20 14:04:25;;;;;;;2.12;1.12;;;;;;;;;;616036;233;26535;-62
2022/09/20 14:06:53;;;;;;;1.50;1.05;;;;;;;;;;614454;230;26589;-62
2022/09/20 14:09:23;;;;;;;1.85;1.00;;;;;;;;;;620116;230;26529;-62
2022/09/20 14:11:52;;;;;;;1.10;1.00;;;;;;;;;;616864;230;26531;-62
2022/09/20 14:14:21;;;;;;;2.55;1.20;;;;;;;;;;614712;231;26797;-62
2022/09/20 14:16:50;;;;;;;1.48;1.05;;;;;;;;;;619902;231;26545;-62
2022/09/20 14:19:19;;;;;;;2.33;0.90;;;;;;;;;;614460;233;26537;-62
2022/09/20 14:21:48;;;;;;;2.08;1.20;;;;;;;;;;614087;232;26556;-62
2022/09/20 14:24:34;;;;;;;1.23;0.90;;;;;;;;;;615516;233;26628;-62
2022/09/20 14:27:00;;;;;;;4.20;1.30;;;;;;;;;;613467;233;26843;-63
2022/09/20 14:29:44;;;;;;;1.02;1.02;;;;;;;;;;613908;233;26564;-62
2022/09/20 14:32:28;;;;;;;1.02;0.90;;;;;;;;;;614926;234;26565;-62
2022/09/20 14:34:57;;;;;;;1.30;0.80;;;;;;;;;;619417;231;26629;-62
2022/09/20 14:37:29;;;;;;;2.22;0.90;;;;;;;;;;616970;231;26620;-63
2022/09/20 14:39:59;;;;;;;3.53;0.90;;;;;;;;;;614495;234;26565;-63
2022/09/20 14:42:29;;;;;;;1.12;0.93;;;;;;;;;;612869;234;26588;-63
2022/09/20 14:44:58;;;;;;;1.10;0.90;;;;;;;;;;614487;234;26803;-63
2022/09/20 14:47:28;;;;;;;1.02;0.90;;;;;;;;;;613962;234;26578;-63
2022/09/20 14:49:57;;;;;;;3.20;1.23;;;;;;;;;;612964;234;26567;-63
2022/09/20 14:52:36;;;;;;;1.98;1.10;;;;;;;;;;619421;231;27315;-63
2022/09/20 14:55:10;;;;;;;7.40;1.20;;;;;;;;;;613467;234;26588;-63
2022/09/20 14:57:39;;;;;;;1.50;0.80;;;;;;;;;;613362;234;26584;-63
2022/09/20 15:00:08;;;;;;;1.85;0.98;;;;;;;;;;618099;228;26933;-63
2022/09/20 15:02:37;;;;;;;2.58;0.98;;;;;;;;;;613119;228;26568;-63
2022/09/20 15:05:07;;;;;;;5.10;0.98;;;;;;;;;;615914;231;26582;-63
2022/09/20 15:07:36;;;;;;;3.72;1.42;;;;;;;;;;618391;231;26835;-63
2022/09/20 15:10:05;;;;;;;2.33;1.17;;;;;;;;;;623938;230;26628;-63
2022/09/20 15:12:34;;;;;;;4.43;1.12;;;;;;;;;;622700;226;26593;-63
2022/09/20 15:15:03;;;;;;;3.78;1.35;;;;;;;;;;623929;230;26527;-63
2022/09/20 15:17:31;;;;;;;1.30;1.20;;;;;;;;;;623419;230;26525;-63
2022/09/20 15:20:01;;;;;;;1.62;1.00;;;;;;;;;;622811;230;26770;-64
2022/09/20 15:22:31;;;;;;;3.90;1.10;;;;;;;;;;613849;231;26851;-62
2022/09/20 15:24:58;;;;;;;6.30;0.90;;;;;;;;;;617989;230;26629;-63